Time;durP1;ratioP1;P1;durP2;ratioP2;P2;SDS_P1;SDS_P2;PMS_P1;PMS_P2;Temp;Humidity;BMP_temperature;BMP_pressure;BME280_temperature;BME280_humidity;BME280_pressure;Samples;Min_cycle;Max_cycle;Signal;HPM_P1;HPM_P2
2022/04/21 00:00:15;;;;;;;7.93;4.43;;;10.30;99.90;;;;;;5030310;28;20159;-54
2022/04/21 00:02:42;;;;;;;8.05;4.30;;;10.10;99.70;;;;;;5030161;28;20183;-47
2022/04/21 00:05:09;;;;;;;8.35;4.32;;;10.10;99.90;;;;;;5030749;28;20041;-47
2022/04/21 00:07:35;;;;;;;8.30;4.53;;;9.90;99.90;;;;;;5029459;28;20076;-46
2022/04/21 00:10:02;;;;;;;8.70;4.70;;;10.00;99.90;;;;;;5029658;28;20057;-45
2022/04/21 00:12:28;;;;;;;9.02;4.57;;;10.00;99.90;;;;;;5029945;28;20045;-48
2022/04/21 00:14:54;;;;;;;7.53;4.20;;;9.90;99.90;;;;;;5030260;28;20049;-47
2022/04/21 00:17:20;;;;;;;7.65;4.13;;;9.90;99.90;;;;;;5030448;28;20044;-47
2022/04/21 00:19:45;;;;;;;9.63;4.63;;;9.70;99.90;;;;;;5030058;28;20041;-50
2022/04/21 00:24:55;;;;;;;10.35;4.55;;;9.80;99.90;;;;;;5030239;28;20072;-45
2022/04/21 00:27:21;;;;;;;8.38;4.07;;;9.80;99.90;;;;;;5030359;28;20429;-48
2022/04/21 00:29:46;;;;;;;9.68;4.72;;;9.70;99.90;;;;;;5030301;28;20041;-44
2022/04/21 00:32:13;;;;;;;9.00;4.35;;;9.80;99.90;;;;;;5030163;28;20049;-52
2022/04/21 00:34:39;;;;;;;9.10;4.97;;;9.60;99.90;;;;;;5030294;28;20053;-49
2022/04/21 00:37:04;;;;;;;9.57;4.35;;;9.60;99.90;;;;;;5030062;28;20089;-52
2022/04/21 00:39:33;;;;;;;7.68;4.55;;;9.60;99.90;;;;;;5030015;28;20488;-45
2022/04/21 00:42:01;;;;;;;7.90;4.43;;;9.70;99.90;;;;;;5029686;28;20069;-52
2022/04/21 00:44:27;;;;;;;8.00;4.45;;;9.60;99.90;;;;;;5029068;28;20089;-50
2022/04/21 00:47:00;;;;;;;8.07;4.43;;;9.70;99.90;;;;;;5030152;28;20042;-51
2022/04/21 00:49:28;;;;;;;9.38;4.88;;;9.60;99.90;;;;;;5030381;28;20451;-45
2022/04/21 00:51:55;;;;;;;7.68;4.30;;;9.60;99.90;;;;;;5029972;28;20377;-50
2022/04/21 00:54:21;;;;;;;10.02;4.50;;;9.60;99.90;;;;;;5027375;28;20492;-47
2022/04/21 00:56:47;;;;;;;9.95;4.57;;;9.50;99.90;;;;;;5030036;28;20075;-45
2022/04/21 00:59:14;;;;;;;8.27;4.50;;;9.50;99.90;;;;;;5032383;28;20037;-49
2022/04/21 01:04:25;;;;;;;9.27;4.63;;;9.50;99.90;;;;;;5033023;28;20091;-48
2022/04/21 01:06:52;;;;;;;7.50;4.55;;;9.30;99.90;;;;;;5033662;28;20480;-49
2022/04/21 01:09:18;;;;;;;9.70;4.82;;;9.40;99.90;;;;;;5033354;28;20508;-47
2022/04/21 01:11:45;;;;;;;9.73;4.57;;;9.30;99.90;;;;;;5033608;28;20037;-50
2022/04/21 01:14:12;;;;;;;8.55;4.25;;;9.30;99.90;;;;;;5033130;28;20045;-48
2022/04/21 01:16:38;;;;;;;8.40;4.65;;;9.30;99.90;;;;;;5033284;28;20033;-49
2022/04/21 01:19:04;;;;;;;9.48;4.63;;;9.30;99.90;;;;;;5032951;28;20038;-51
2022/04/21 01:21:30;;;;;;;8.90;4.90;;;9.20;99.90;;;;;;5033238;28;20038;-48
2022/04/21 01:23:55;;;;;;;8.77;4.78;;;9.20;99.90;;;;;;5032893;28;20489;-43
2022/04/21 01:26:22;;;;;;;8.88;5.15;;;9.20;99.90;;;;;;5032899;28;20042;-49
2022/04/21 01:28:49;;;;;;;9.73;4.93;;;9.20;99.90;;;;;;5033108;28;20076;-50
2022/04/21 01:31:24;;;;;;;8.20;4.65;;;9.30;99.90;;;;;;5032709;28;20045;-47
2022/04/21 01:33:50;;;;;;;9.88;4.85;;;9.10;99.90;;;;;;5032805;28;20060;-46
2022/04/21 01:36:16;;;;;;;11.57;5.40;;;9.10;99.90;;;;;;5032643;28;20045;-47
2022/04/21 01:41:26;;;;;;;10.93;4.75;;;8.90;99.90;;;;;;5032498;28;20048;-47
2022/04/21 01:43:52;;;;;;;9.00;5.00;;;8.90;99.90;;;;;;5032688;28;20038;-47
2022/04/21 01:46:18;;;;;;;7.68;4.65;;;8.90;99.90;;;;;;5032642;28;20148;-48
2022/04/21 01:48:44;;;;;;;9.27;4.93;;;8.80;99.90;;;;;;5032451;28;20046;-44
2022/04/21 01:51:10;;;;;;;8.65;5.05;;;8.80;99.90;;;;;;5032650;28;20037;-46
2022/04/21 01:53:35;;;;;;;9.43;4.90;;;8.80;99.90;;;;;;5031926;28;20045;-51
2022/04/21 01:56:01;;;;;;;10.02;5.50;;;8.70;99.90;;;;;;5032144;28;20037;-52
2022/04/21 01:58:27;;;;;;;9.38;5.20;;;8.70;99.90;;;;;;5032292;28;20124;-45
2022/04/21 02:00:53;;;;;;;8.93;5.70;;;8.80;99.90;;;;;;5032167;28;20489;-46
2022/04/21 02:03:19;;;;;;;8.82;4.88;;;8.70;99.90;;;;;;5032254;28;20045;-48
2022/04/21 02:05:44;;;;;;;11.85;5.60;;;8.60;99.90;;;;;;5032389;28;20030;-46
2022/04/21 02:08:11;;;;;;;10.30;5.72;;;8.70;99.90;;;;;;5032098;28;20045;-52
2022/04/21 02:10:36;;;;;;;10.40;6.00;;;8.70;99.90;;;;;;5031879;28;20509;-45
2022/04/21 02:13:02;;;;;;;9.05;5.60;;;8.70;99.90;;;;;;5032163;28;20069;-48
2022/04/21 02:15:28;;;;;;;10.82;5.60;;;8.70;99.90;;;;;;5031805;28;20527;-46
2022/04/21 02:17:53;;;;;;;10.25;5.55;;;8.60;99.90;;;;;;5032199;28;20103;-50
2022/04/21 02:20:20;;;;;;;9.98;5.68;;;8.50;99.90;;;;;;5032269;28;20120;-47
2022/04/21 02:22:46;;;;;;;9.48;5.38;;;8.50;99.90;;;;;;5029850;28;20513;-45
2022/04/21 02:25:14;;;;;;;8.80;5.50;;;8.50;99.90;;;;;;5031403;28;20041;-52
2022/04/21 02:27:42;;;;;;;9.95;6.43;;;8.50;99.90;;;;;;5031649;28;20055;-46
2022/04/21 02:30:09;;;;;;;11.13;6.07;;;8.40;99.90;;;;;;5031905;28;20443;-50
2022/04/21 02:32:35;;;;;;;11.63;6.35;;;8.40;99.90;;;;;;5031861;28;20041;-46
2022/04/21 02:35:02;;;;;;;10.13;6.10;;;8.50;99.90;;;;;;5031397;28;20058;-45
2022/04/21 02:37:28;;;;;;;8.55;5.88;;;8.50;99.90;;;;;;5031719;28;20049;-50
2022/04/21 02:39:54;;;;;;;11.48;7.25;;;8.30;99.90;;;;;;5030688;28;20107;-45
2022/04/21 02:42:20;;;;;;;13.95;7.57;;;8.40;99.90;;;;;;5031330;28;20057;-49
2022/04/21 02:44:47;;;;;;;10.93;7.10;;;8.20;99.90;;;;;;5031724;28;20156;-49
2022/04/21 02:47:14;;;;;;;11.30;7.40;;;8.30;99.90;;;;;;5031663;28;20091;-48
2022/04/21 02:49:45;;;;;;;12.00;7.13;;;8.20;99.90;;;;;;5031489;28;20064;-45
2022/04/21 02:52:11;;;;;;;11.18;6.70;;;8.20;99.90;;;;;;5031504;28;20072;-50
2022/04/21 02:57:23;;;;;;;11.27;6.55;;;8.10;99.90;;;;;;5031230;28;20049;-48
2022/04/21 02:59:50;;;;;;;11.57;7.20;;;8.00;99.90;;;;;;5031162;28;20041;-47
2022/04/21 03:02:18;;;;;;;11.18;7.55;;;8.00;99.90;;;;;;5029726;28;20045;-43
2022/04/21 03:04:44;;;;;;;10.45;7.32;;;8.00;99.90;;;;;;5029784;28;20098;-43
2022/04/21 03:07:10;;;;;;;11.85;7.85;;;7.90;99.90;;;;;;5031028;28;20139;-50
2022/04/21 03:09:36;;;;;;;12.10;7.53;;;7.90;99.90;;;;;;5029183;28;20068;-46
2022/04/21 03:12:03;;;;;;;12.32;7.75;;;7.80;99.90;;;;;;5030960;28;20076;-47
2022/04/21 03:14:29;;;;;;;13.80;7.70;;;7.80;99.90;;;;;;5031221;28;20439;-50
2022/04/21 03:16:55;;;;;;;12.90;7.88;;;7.70;99.90;;;;;;5031132;28;20041;-49
2022/04/21 03:19:21;;;;;;;13.00;7.63;;;7.70;99.90;;;;;;5030992;28;20083;-51
2022/04/21 03:24:32;;;;;;;12.48;7.25;;;7.60;99.90;;;;;;5030392;28;20057;-47
2022/04/21 03:26:58;;;;;;;12.02;7.72;;;7.70;99.90;;;;;;5030922;28;20556;-51
2022/04/21 03:29:24;;;;;;;14.15;8.18;;;7.70;99.90;;;;;;5030949;28;20137;-49
2022/04/21 03:31:50;;;;;;;15.20;7.53;;;7.60;99.90;;;;;;5031209;28;20048;-51
2022/04/21 03:34:18;;;;;;;15.70;8.68;;;7.60;99.90;;;;;;5030556;28;20049;-47
2022/04/21 03:36:48;;;;;;;13.20;7.72;;;7.60;99.90;;;;;;5030735;28;20044;-44
2022/04/21 03:39:20;;;;;;;12.90;7.57;;;7.60;99.90;;;;;;5030721;28;20033;-45
2022/04/21 03:41:46;;;;;;;12.68;7.95;;;7.60;99.90;;;;;;5030789;28;20132;-48
2022/04/21 03:44:12;;;;;;;14.20;7.78;;;7.70;99.90;;;;;;5029040;28;20832;-47
2022/04/21 03:46:38;;;;;;;12.57;8.10;;;7.50;99.90;;;;;;5030464;28;20037;-47
2022/04/21 03:49:07;;;;;;;14.82;8.05;;;7.60;99.90;;;;;;5030533;28;20048;-46
2022/04/21 03:51:33;;;;;;;13.55;8.25;;;7.50;99.90;;;;;;5030689;28;20388;-52
2022/04/21 03:53:59;;;;;;;17.15;8.32;;;7.50;99.90;;;;;;5028222;28;20438;-51
2022/04/21 03:56:27;;;;;;;16.33;8.18;;;7.50;99.90;;;;;;5030213;28;20073;-47
2022/04/21 03:58:53;;;;;;;12.35;7.45;;;7.40;99.90;;;;;;5030376;28;20034;-45
2022/04/21 04:01:19;;;;;;;12.25;7.78;;;7.40;99.90;;;;;;5030743;28;20042;-45
2022/04/21 04:03:45;;;;;;;14.63;8.50;;;7.40;99.90;;;;;;5028820;28;20049;-48
2022/04/21 04:11:40;;;;;;;13.90;8.35;;;7.20;99.90;;;;;;5030476;28;20143;-48
2022/04/21 04:14:06;;;;;;;14.02;8.57;;;7.30;99.90;;;;;;5030127;28;20477;-49
2022/04/21 04:16:35;;;;;;;12.90;8.20;;;7.20;99.90;;;;;;5030470;28;20396;-48
2022/04/21 04:19:10;;;;;;;13.50;8.35;;;7.10;99.90;;;;;;5028769;28;20072;-47
2022/04/21 04:21:39;;;;;;;15.07;8.88;;;7.20;99.90;;;;;;5030535;28;20124;-43
2022/04/21 04:24:06;;;;;;;12.00;8.13;;;7.20;99.90;;;;;;5029661;28;20046;-47
2022/04/21 04:26:32;;;;;;;13.85;8.48;;;7.20;99.90;;;;;;5028659;28;20037;-50
2022/04/21 04:28:58;;;;;;;13.52;8.93;;;7.10;99.90;;;;;;5030130;28;20042;-42
2022/04/21 04:31:24;;;;;;;14.48;8.18;;;7.10;99.90;;;;;;5012404;28;20041;-46
2022/04/21 04:33:50;;;;;;;13.20;8.57;;;7.00;99.90;;;;;;5032618;28;20056;-49
2022/04/21 04:36:16;;;;;;;12.50;8.63;;;7.00;99.90;;;;;;5032600;28;20432;-49
2022/04/21 04:38:45;;;;;;;12.95;8.38;;;7.00;99.90;;;;;;5031869;28;20046;-44
2022/04/21 04:43:55;;;;;;;12.70;8.68;;;6.90;99.90;;;;;;5033601;28;20096;-45
2022/04/21 04:46:37;;;;;;;13.20;9.10;;;6.90;99.90;;;;;;5034152;28;20114;-44
2022/04/21 04:49:12;;;;;;;13.70;9.30;;;6.90;99.90;;;;;;5033624;28;20037;-48
2022/04/21 04:51:41;;;;;;;17.02;9.77;;;7.00;99.90;;;;;;5033525;28;20042;-44
2022/04/21 04:54:09;;;;;;;15.13;8.90;;;7.00;99.90;;;;;;5033442;28;20473;-53
2022/04/21 04:56:36;;;;;;;12.60;8.80;;;7.00;99.90;;;;;;5033640;28;20489;-47
2022/04/21 04:59:03;;;;;;;14.18;9.32;;;6.90;99.90;;;;;;5033193;28;20132;-47
2022/04/21 05:01:31;;;;;;;12.77;8.77;;;6.90;99.90;;;;;;5033420;28;20037;-49
2022/04/21 05:04:05;;;;;;;13.98;9.07;;;6.90;99.90;;;;;;5031900;28;20144;-50
2022/04/21 05:06:38;;;;;;;13.52;8.82;;;6.90;99.90;;;;;;5033867;28;20037;-47
2022/04/21 05:09:11;;;;;;;13.55;9.07;;;6.90;99.90;;;;;;5033290;28;20041;-52
2022/04/21 05:11:42;;;;;;;14.88;8.43;;;7.00;99.90;;;;;;5033552;28;20041;-49
2022/04/21 05:14:08;;;;;;;15.60;9.40;;;6.90;99.90;;;;;;5033204;28;20052;-44
2022/04/21 05:16:39;;;;;;;14.02;8.88;;;7.00;99.90;;;;;;5031897;28;20043;-48
2022/04/21 05:19:07;;;;;;;12.85;9.23;;;6.90;99.90;;;;;;5033036;28;20052;-44
2022/04/21 05:21:34;;;;;;;13.25;9.02;;;7.00;99.90;;;;;;5030548;28;20039;-48
2022/04/21 05:24:01;;;;;;;14.95;9.32;;;7.00;99.90;;;;;;5030253;28;20045;-42
2022/04/21 05:26:30;;;;;;;14.63;9.43;;;7.00;99.90;;;;;;5032784;28;20072;-47
2022/04/21 05:28:58;;;;;;;13.27;9.32;;;7.10;99.90;;;;;;5032893;28;20033;-49
2022/04/21 05:31:25;;;;;;;13.73;9.68;;;7.20;99.90;;;;;;5032926;28;20042;-51
2022/04/21 05:33:51;;;;;;;17.88;8.95;;;7.20;99.90;;;;;;5032649;28;20160;-44
2022/04/21 05:36:17;;;;;;;13.50;9.27;;;7.30;99.90;;;;;;5032398;28;20136;-48
2022/04/21 05:38:43;;;;;;;15.30;8.82;;;7.40;99.90;;;;;;5033223;28;20045;-45
2022/04/21 05:41:12;;;;;;;14.57;9.70;;;7.40;99.90;;;;;;5032843;28;20036;-49
2022/04/21 05:43:40;;;;;;;15.05;8.98;;;7.50;99.90;;;;;;5031843;28;20037;-49
2022/04/21 05:46:07;;;;;;;14.55;9.27;;;7.50;99.90;;;;;;5032783;28;20033;-51
2022/04/21 05:48:34;;;;;;;13.15;8.57;;;7.50;99.90;;;;;;5032673;28;20100;-45
2022/04/21 05:51:00;;;;;;;16.52;9.18;;;7.50;99.90;;;;;;5032831;28;20125;-48
2022/04/21 05:53:27;;;;;;;15.45;9.48;;;7.60;99.90;;;;;;5032137;28;20128;-43
2022/04/21 05:55:53;;;;;;;14.43;9.00;;;7.60;99.90;;;;;;5032596;28;20069;-46
2022/04/21 05:58:20;;;;;;;15.00;8.70;;;7.70;99.90;;;;;;5032203;28;20457;-44
2022/04/21 06:00:46;;;;;;;17.40;9.40;;;7.80;99.90;;;;;;5030293;28;20044;-48
2022/04/21 06:03:12;;;;;;;13.15;8.70;;;7.80;99.90;;;;;;5032077;28;20037;-47
2022/04/21 06:05:40;;;;;;;14.23;9.02;;;7.80;99.90;;;;;;5032351;28;20045;-47
2022/04/21 06:08:06;;;;;;;15.05;8.75;;;7.90;99.90;;;;;;5028235;28;20045;-49
2022/04/21 06:10:35;;;;;;;12.93;8.60;;;8.00;99.90;;;;;;5031595;28;20042;-47
2022/04/21 06:13:03;;;;;;;14.13;9.55;;;8.00;99.90;;;;;;5031694;28;20048;-50
2022/04/21 06:15:30;;;;;;;13.57;9.13;;;8.10;99.90;;;;;;5032086;28;20041;-50
2022/04/21 06:17:56;;;;;;;12.75;8.00;;;8.20;99.90;;;;;;5031938;28;20041;-46
2022/04/21 06:20:22;;;;;;;12.93;8.10;;;8.20;99.90;;;;;;5022375;28;20076;-47
2022/04/21 06:22:48;;;;;;;12.82;8.43;;;8.30;99.90;;;;;;5023902;28;20460;-43
2022/04/21 06:25:13;;;;;;;12.20;8.60;;;8.30;99.90;;;;;;5023418;28;20124;-45
2022/04/21 06:27:39;;;;;;;15.73;8.30;;;8.40;99.90;;;;;;5023691;28;20033;-45
2022/04/21 06:30:05;;;;;;;12.23;7.97;;;8.40;99.90;;;;;;5023747;28;20045;-47
2022/04/21 06:32:31;;;;;;;11.57;7.28;;;8.50;99.90;;;;;;5020790;28;20033;-48
2022/04/21 06:34:57;;;;;;;11.68;7.45;;;8.50;99.90;;;;;;5023465;28;20088;-49
2022/04/21 06:37:23;;;;;;;13.65;7.40;;;8.70;99.90;;;;;;5023925;28;20033;-47
2022/04/21 06:39:49;;;;;;;11.20;6.75;;;8.70;99.90;;;;;;5022029;28;20056;-46
2022/04/21 06:42:15;;;;;;;13.85;8.00;;;8.80;99.90;;;;;;5022698;28;20034;-45
2022/04/21 06:50:10;;;;;;;10.50;6.80;;;9.00;99.90;;;;;;5023219;28;20068;-46
2022/04/21 06:52:36;;;;;;;13.60;6.93;;;9.00;99.90;;;;;;5023700;28;20073;-47
2022/04/21 06:55:03;;;;;;;10.52;6.47;;;9.10;99.90;;;;;;5022295;28;20040;-48
2022/04/21 06:57:29;;;;;;;11.55;6.20;;;9.10;99.90;;;;;;5023128;28;20037;-47
2022/04/21 06:59:54;;;;;;;12.57;7.30;;;9.20;99.90;;;;;;5019961;28;20465;-43
2022/04/21 07:02:37;;;;;;;10.50;6.63;;;9.20;99.90;;;;;;5016986;28;20548;-47
2022/04/21 07:05:08;;;;;;;12.05;6.88;;;9.30;99.90;;;;;;5016720;28;20038;-50
2022/04/21 07:07:33;;;;;;;10.93;6.00;;;9.40;99.90;;;;;;5021055;28;20045;-46
2022/04/21 07:10:02;;;;;;;9.95;5.95;;;9.40;99.90;;;;;;5021719;28;20026;-48
2022/04/21 07:12:32;;;;;;;10.18;6.18;;;9.40;99.90;;;;;;5023087;28;20095;-47
2022/04/21 07:15:04;;;;;;;10.88;5.20;;;9.60;99.90;;;;;;5022418;28;20511;-46
2022/04/21 07:17:30;;;;;;;11.00;5.80;;;9.70;99.90;;;;;;5022996;28;20080;-48
2022/04/21 07:19:55;;;;;;;9.95;5.65;;;9.70;99.90;;;;;;5022798;28;20122;-47
2022/04/21 07:22:25;;;;;;;9.38;5.30;;;9.80;99.90;;;;;;5023036;28;20030;-42
2022/04/21 07:24:51;;;;;;;8.32;4.88;;;9.90;99.90;;;;;;5021579;28;20783;-50
2022/04/21 07:27:17;;;;;;;9.73;5.40;;;10.00;99.90;;;;;;5019417;28;20111;-50
2022/04/21 07:29:43;;;;;;;9.50;4.97;;;10.10;99.90;;;;;;5022781;28;20064;-45
2022/04/21 07:32:10;;;;;;;8.50;4.75;;;10.10;99.90;;;;;;5022163;28;20036;-43
2022/04/21 07:34:36;;;;;;;9.00;5.28;;;10.20;99.90;;;;;;5021231;28;20057;-47
2022/04/21 07:37:02;;;;;;;7.38;4.75;;;10.20;99.90;;;;;;5019820;28;20077;-45
2022/04/21 07:39:28;;;;;;;9.07;4.70;;;10.30;99.90;;;;;;5022723;28;20142;-48
2022/04/21 07:41:55;;;;;;;9.63;4.85;;;10.40;99.90;;;;;;5022953;28;20071;-45
2022/04/21 07:44:20;;;;;;;9.35;5.20;;;10.40;99.90;;;;;;5022461;28;20087;-45
2022/04/21 07:46:46;;;;;;;6.60;4.30;;;10.50;99.90;;;;;;5022402;28;20033;-45
2022/04/21 07:53:13;;;;;;;7.55;4.57;;;10.70;99.90;;;;;;5020973;28;20076;-47
2022/04/21 07:54:43;;;;;;;8.02;4.50;;;10.80;99.90;;;;;;5019927;28;20087;-47
2022/04/21 07:57:09;;;;;;;8.45;4.65;;;10.80;99.90;;;;;;5020963;28;20048;-49
2022/04/21 07:59:35;;;;;;;7.15;3.85;;;10.90;99.90;;;;;;5021210;28;20041;-44
2022/04/21 08:02:01;;;;;;;7.03;4.05;;;10.90;99.90;;;;;;5020564;28;20720;-48
2022/04/21 08:04:27;;;;;;;5.30;3.10;;;11.00;99.90;;;;;;5028800;28;20057;-47
2022/04/21 08:06:54;;;;;;;6.60;3.55;;;11.20;99.90;;;;;;5029560;28;20033;-46
2022/04/21 08:09:20;;;;;;;8.55;3.65;;;11.30;99.90;;;;;;5032573;28;20086;-45
2022/04/21 08:11:46;;;;;;;7.25;3.70;;;11.40;99.90;;;;;;5033763;28;20045;-49
2022/04/21 08:14:16;;;;;;;6.93;3.38;;;11.50;99.90;;;;;;5034295;28;20045;-50
2022/04/21 08:16:43;;;;;;;6.70;3.70;;;11.60;99.90;;;;;;5034656;28;20415;-51
2022/04/21 08:19:12;;;;;;;7.47;3.00;;;11.60;99.90;;;;;;5034489;28;20033;-45
2022/04/21 08:21:37;;;;;;;5.53;3.70;;;11.70;99.90;;;;;;5034399;28;20120;-45
2022/04/21 08:32:36;;;;;;;6.95;2.78;;;12.10;99.90;;;;;;5034192;28;20099;-47
2022/04/21 08:35:06;;;;;;;5.53;2.70;;;12.30;99.90;;;;;;5029801;28;20132;-50
2022/04/21 08:37:35;;;;;;;6.20;2.70;;;12.40;99.90;;;;;;5034263;28;20033;-44
2022/04/21 08:40:02;;;;;;;4.65;2.38;;;12.50;99.90;;;;;;5033685;28;20080;-47
2022/04/21 08:42:30;;;;;;;5.95;2.85;;;12.60;99.90;;;;;;5034037;28;20045;-48
2022/04/21 08:44:59;;;;;;;4.80;2.60;;;12.70;99.90;;;;;;5033788;28;20036;-50
2022/04/21 08:47:28;;;;;;;5.88;2.67;;;12.80;99.90;;;;;;5034132;28;20037;-49
2022/04/21 08:50:03;;;;;;;6.18;2.70;;;12.90;99.90;;;;;;5033693;28;20443;-53
2022/04/21 08:52:31;;;;;;;7.95;2.95;;;13.00;99.90;;;;;;5033830;28;20060;-44
2022/04/21 08:54:56;;;;;;;4.90;2.90;;;13.00;99.90;;;;;;5033171;28;20029;-46
2022/04/21 08:57:22;;;;;;;4.28;2.45;;;13.10;99.80;;;;;;5033961;28;20044;-48
2022/04/21 08:59:48;;;;;;;5.40;2.58;;;13.40;98.30;;;;;;5032061;28;20049;-49
2022/04/21 09:02:14;;;;;;;7.40;2.58;;;13.60;99.40;;;;;;5033767;28;20413;-47
2022/04/21 09:04:43;;;;;;;6.75;2.78;;;13.80;98.70;;;;;;5033481;28;20100;-50
2022/04/21 09:07:20;;;;;;;6.20;3.25;;;13.80;98.30;;;;;;5033339;28;20041;-45
2022/04/21 09:10:01;;;;;;;5.93;2.88;;;14.00;97.40;;;;;;5033443;28;20038;-41
2022/04/21 09:12:27;;;;;;;18.27;3.70;;;14.20;97.50;;;;;;5033282;28;20034;-51
2022/04/21 09:14:53;;;;;;;5.13;2.83;;;14.20;98.20;;;;;;5033413;28;20026;-45
2022/04/21 09:17:18;;;;;;;5.95;3.20;;;14.60;97.40;;;;;;5033534;28;20456;-50
2022/04/21 09:19:58;;;;;;;6.05;3.40;;;14.60;97.20;;;;;;5031852;28;20053;-43
2022/04/21 09:22:24;;;;;;;5.57;3.05;;;14.70;96.20;;;;;;5032963;28;20041;-51
2022/04/21 09:24:53;;;;;;;5.68;3.03;;;14.90;96.60;;;;;;5032442;28;20567;-43
2022/04/21 09:27:20;;;;;;;6.13;3.13;;;14.60;95.40;;;;;;5032929;28;20061;-43
2022/04/21 09:29:46;;;;;;;5.22;2.88;;;14.90;96.50;;;;;;5032216;28;20044;-47
2022/04/21 09:32:17;;;;;;;6.50;2.78;;;15.10;96.40;;;;;;5027983;28;20034;-47
2022/04/21 09:34:49;;;;;;;6.07;2.88;;;15.20;95.00;;;;;;5031234;28;20404;-48
2022/04/21 09:37:19;;;;;;;6.15;3.15;;;15.30;95.20;;;;;;5029848;28;20095;-48
2022/04/21 09:39:52;;;;;;;5.97;2.42;;;15.30;94.70;;;;;;5027359;28;20076;-47
2022/04/21 09:42:28;;;;;;;5.90;2.80;;;15.60;94.70;;;;;;5026530;28;20037;-50
2022/04/21 09:47:54;;;;;;;7.43;3.03;;;15.70;95.10;;;;;;5022197;28;20052;-45
2022/04/21 09:50:23;;;;;;;7.05;2.70;;;15.70;94.10;;;;;;5027172;28;20056;-48
2022/04/21 09:52:51;;;;;;;5.05;2.40;;;15.80;93.60;;;;;;5030666;28;20044;-47
2022/04/21 09:55:25;;;;;;;7.10;2.67;;;15.90;93.90;;;;;;5029230;28;20041;-51
2022/04/21 09:58:12;;;;;;;5.00;2.30;;;15.90;93.50;;;;;;5026986;28;20049;-45
2022/04/21 10:00:39;;;;;;;6.60;2.63;;;16.10;92.50;;;;;;5026720;28;20037;-52
2022/04/21 10:03:06;;;;;;;5.30;2.35;;;16.10;92.60;;;;;;5025112;28;20042;-50
2022/04/21 10:05:34;;;;;;;4.20;2.10;;;15.90;92.60;;;;;;5023724;28;20061;-46
2022/04/21 10:08:01;;;;;;;5.57;2.28;;;15.80;90.60;;;;;;5022918;28;20045;-51
2022/04/21 10:10:32;;;;;;;4.85;2.53;;;16.20;91.40;;;;;;5031069;28;20041;-48
2022/04/21 10:13:02;;;;;;;7.03;2.40;;;16.30;91.20;;;;;;5029769;28;20478;-51
2022/04/21 10:15:31;;;;;;;6.75;2.80;;;16.20;90.90;;;;;;5027762;28;20045;-51
2022/04/21 10:17:57;;;;;;;4.45;2.17;;;16.20;89.40;;;;;;5025259;28;20121;-48
2022/04/21 10:20:25;;;;;;;6.07;2.28;;;16.30;89.10;;;;;;5025234;28;20037;-49
2022/04/21 10:22:52;;;;;;;6.00;2.65;;;16.30;88.90;;;;;;5022618;28;20046;-47
2022/04/21 10:25:19;;;;;;;5.35;2.92;;;16.40;89.80;;;;;;5026101;28;20037;-45
2022/04/21 10:27:47;;;;;;;5.80;2.55;;;16.40;90.00;;;;;;5029240;28;20081;-47
2022/04/21 10:30:22;;;;;;;4.15;2.13;;;16.30;90.40;;;;;;5026733;28;20095;-49
2022/04/21 10:32:56;;;;;;;5.45;2.60;;;16.40;89.70;;;;;;5026275;28;20038;-47
2022/04/21 10:35:28;;;;;;;11.65;2.45;;;16.60;87.80;;;;;;5022912;28;20095;-45
2022/04/21 10:38:15;;;;;;;6.53;2.03;;;16.60;84.90;;;;;;5022631;28;20493;-48
2022/04/21 10:41:03;;;;;;;5.90;2.08;;;16.40;85.80;;;;;;5026207;28;20118;-46
2022/04/21 10:43:47;;;;;;;5.82;2.13;;;16.50;86.90;;;;;;5029131;28;20038;-49
2022/04/21 10:46:29;;;;;;;5.60;1.63;;;16.80;85.20;;;;;;5026783;28;20044;-49
2022/04/21 10:48:55;;;;;;;4.93;2.10;;;16.70;79.50;;;;;;5027152;28;20049;-45
2022/04/21 10:57:17;;;;;;;5.70;2.00;;;17.00;80.80;;;;;;5016033;28;20046;-49
2022/04/21 11:00:22;;;;;;;5.88;2.45;;;17.30;80.30;;;;;;5028039;28;20049;-47
2022/04/21 11:02:47;;;;;;;;;;;17.30;80.80;;;;;;5028578;28;20053;-52
2022/04/21 11:05:22;;;;;;;6.60;2.10;;;17.50;81.20;;;;;;5024783;28;19916;-47
2022/04/21 11:08:02;;;;;;;4.28;1.90;;;17.70;82.00;;;;;;5025610;28;20332;-50
2022/04/21 11:10:37;;;;;;;5.93;2.08;;;17.90;78.50;;;;;;5024544;28;20045;-50
2022/04/21 11:13:05;;;;;;;4.15;2.05;;;17.70;78.50;;;;;;5021266;28;20045;-46
2022/04/21 11:15:39;;;;;;;4.43;1.80;;;18.00;78.10;;;;;;5022688;28;20481;-48
2022/04/21 11:18:10;;;;;;;4.70;1.88;;;18.10;77.60;;;;;;5029815;28;20049;-48
2022/04/21 11:20:43;;;;;;;6.35;2.33;;;18.10;76.20;;;;;;5026959;28;20036;-47
2022/04/21 11:23:29;;;;;;;4.72;2.30;;;18.30;75.70;;;;;;5026033;28;20042;-50
2022/04/21 11:26:05;;;;;;;4.55;1.85;;;18.40;74.30;;;;;;5023915;28;20063;-46
2022/04/21 11:28:32;;;;;;;5.22;1.90;;;18.10;72.40;;;;;;5022659;28;20045;-48
2022/04/21 11:31:00;;;;;;;4.30;1.60;;;18.30;73.10;;;;;;5021808;28;20131;-48
2022/04/21 11:33:26;;;;;;;4.57;1.98;;;18.50;72.40;;;;;;5024615;28;20058;-47
2022/04/21 11:36:01;;;;;;;4.35;1.48;;;18.20;73.60;;;;;;5026662;28;20053;-49
2022/04/21 11:38:27;;;;;;;3.75;1.60;;;18.70;73.30;;;;;;5027725;28;20048;-48
2022/04/21 11:40:54;;;;;;;4.40;1.50;;;18.40;70.80;;;;;;5025714;28;20081;-50
2022/04/21 11:43:19;;;;;;;4.60;1.90;;;18.80;72.20;;;;;;5024055;28;20041;-47
2022/04/21 11:45:59;;;;;;;6.70;2.20;;;19.10;70.60;;;;;;5023404;28;20050;-50
2022/04/21 11:48:30;;;;;;;3.53;1.50;;;18.70;69.20;;;;;;5021394;28;20050;-54
2022/04/21 11:50:56;;;;;;;5.03;1.88;;;19.10;70.10;;;;;;5026828;28;20095;-45
2022/04/21 11:53:22;;;;;;;5.63;1.77;;;19.20;68.40;;;;;;5028713;28;20068;-48
2022/04/21 11:55:49;;;;;;;5.13;1.70;;;19.30;67.10;;;;;;5025732;28;20069;-50
2022/04/21 11:58:34;;;;;;;7.85;2.10;;;19.30;68.20;;;;;;5026421;28;20045;-50
2022/04/21 12:06:48;;;;;;;3.70;1.80;;;19.70;65.20;;;;;;5020901;28;20126;-49
2022/04/21 12:09:22;;;;;;;2.75;1.45;;;19.70;68.20;;;;;;5025279;28;20485;-49
2022/04/21 12:11:54;;;;;;;3.70;1.70;;;19.80;64.80;;;;;;5028455;28;20042;-47
2022/04/21 12:14:21;;;;;;;4.10;1.70;;;19.80;64.90;;;;;;5026764;28;20056;-48
2022/04/21 12:16:49;;;;;;;5.72;1.77;;;19.90;67.00;;;;;;5025792;28;20045;-51
2022/04/21 12:19:32;;;;;;;4.60;2.10;;;19.80;64.50;;;;;;5024107;28;20052;-48
2022/04/21 12:22:10;;;;;;;4.32;1.90;;;20.00;65.80;;;;;;5021405;28;20503;-49
2022/04/21 12:24:40;;;;;;;6.97;2.22;;;20.00;65.60;;;;;;5020401;28;20096;-49
2022/04/21 12:27:15;;;;;;;4.95;1.90;;;20.20;67.10;;;;;;5027314;28;20056;-48
2022/04/21 12:29:48;;;;;;;4.85;2.13;;;20.50;66.00;;;;;;5027973;28;20037;-48
2022/04/21 12:32:18;;;;;;;5.20;2.50;;;20.00;66.60;;;;;;5025695;28;20496;-51
2022/04/21 12:34:43;;;;;;;4.45;2.40;;;19.60;64.70;;;;;;5025221;28;20054;-49
2022/04/21 12:37:09;;;;;;;4.93;2.70;;;19.60;66.60;;;;;;5023938;28;20038;-49
2022/04/21 12:39:38;;;;;;;6.15;2.67;;;19.30;64.70;;;;;;5037664;28;20042;-49
2022/04/21 12:42:05;;;;;;;6.95;2.50;;;19.80;66.00;;;;;;5021895;28;20041;-52
2022/04/21 12:44:31;;;;;;;6.63;2.33;;;20.20;66.00;;;;;;5022849;28;20378;-53
2022/04/21 12:47:17;;;;;;;7.65;2.30;;;20.40;66.90;;;;;;5028432;28;20033;-54
2022/04/21 12:49:53;;;;;;;6.63;2.47;;;20.30;66.20;;;;;;5025904;28;20452;-50
2022/04/21 12:52:31;;;;;;;6.40;2.42;;;20.40;64.40;;;;;;5024458;28;20037;-49
2022/04/21 12:54:57;;;;;;;6.47;2.33;;;20.70;64.70;;;;;;5024941;28;20570;-49
2022/04/21 12:57:23;;;;;;;4.88;2.00;;;20.90;67.40;;;;;;5025332;28;20036;-46
2022/04/21 12:59:50;;;;;;;5.90;2.22;;;21.10;66.40;;;;;;5024676;28;20112;-47
2022/04/21 13:02:19;;;;;;;7.18;2.42;;;21.40;64.90;;;;;;5026040;28;20043;-48
2022/04/21 13:04:46;;;;;;;3.83;2.20;;;21.40;63.90;;;;;;5031997;28;20049;-47
2022/04/21 13:07:12;;;;;;;6.60;2.60;;;21.50;64.10;;;;;;5030696;28;20037;-48
2022/04/21 13:09:37;;;;;;;5.35;2.47;;;21.20;62.30;;;;;;5029227;28;20366;-52
2022/04/21 13:12:04;;;;;;;4.28;2.42;;;21.60;63.70;;;;;;5027601;28;20034;-51
2022/04/21 13:14:29;;;;;;;6.05;2.63;;;21.40;61.40;;;;;;5025443;28;20036;-49
2022/04/21 13:16:56;;;;;;;6.50;2.63;;;21.00;61.80;;;;;;5024331;28;20132;-53
2022/04/21 13:19:21;;;;;;;4.05;2.40;;;21.10;63.10;;;;;;5023970;28;20037;-52
2022/04/21 13:21:53;;;;;;;4.60;2.60;;;21.20;63.50;;;;;;5031922;28;20129;-48
2022/04/21 13:24:23;;;;;;;7.32;2.55;;;21.20;62.50;;;;;;5029272;28;20029;-52
2022/04/21 13:26:49;;;;;;;8.27;2.75;;;21.30;62.10;;;;;;5028660;28;20121;-49
2022/04/21 13:29:15;;;;;;;4.82;2.60;;;21.20;64.10;;;;;;5027784;28;20076;-50
2022/04/21 13:34:25;;;;;;;5.72;3.25;;;20.80;63.00;;;;;;5024983;28;20127;-52
2022/04/21 13:36:51;;;;;;;8.30;2.70;;;20.80;62.80;;;;;;5032380;28;20476;-48
2022/04/21 13:39:17;;;;;;;5.68;2.88;;;20.60;65.30;;;;;;5032417;28;20445;-48
2022/04/21 13:41:44;;;;;;;5.65;2.78;;;20.90;64.00;;;;;;5028819;28;20073;-48
2022/04/21 13:44:10;;;;;;;6.00;2.92;;;21.20;64.00;;;;;;5028120;28;20046;-50
2022/04/21 13:46:36;;;;;;;4.20;2.55;;;21.00;63.00;;;;;;5058246;28;20037;-50
2022/04/21 13:49:03;;;;;;;8.00;2.90;;;21.10;63.60;;;;;;5024897;28;20117;-48